createdAt,value
2023-05-20T00:02:07.294Z,100675.63
2023-05-20T00:05:08.976Z,100675.00
2023-05-20T00:08:11.017Z,100670.31
2023-05-20T00:11:12.456Z,100673.28
2023-05-20T00:14:14.246Z,100663.88
2023-05-20T00:17:15.689Z,100652.38
2023-05-20T00:20:17.156Z,100651.91
2023-05-20T00:23:18.616Z,100651.41
2023-05-20T00:26:21.254Z,100645.56
2023-05-20T00:29:28.397Z,100648.91
2023-05-20T00:32:29.951Z,100655.47
2023-05-20T00:35:31.659Z,100656.44
2023-05-20T00:38:34.019Z,100651.88
2023-05-20T00:41:35.805Z,100658.13
2023-05-20T00:44:37.233Z,100658.25
2023-05-20T00:47:39.086Z,100651.28
2023-05-20T00:50:40.588Z,100651.53
2023-05-20T00:53:42.217Z,100648.78
2023-05-20T00:56:44.553Z,100632.09
2023-05-20T00:59:46.081Z,100640.00
2023-05-20T01:02:47.707Z,100628.44
2023-05-20T01:05:49.346Z,100638.47
2023-05-20T01:08:51.222Z,100637.59
2023-05-20T01:11:59.855Z,100631.56
2023-05-20T01:15:09.428Z,100633.47
2023-05-20T01:18:13.431Z,100642.22
2023-05-20T01:21:15.814Z,100637.22
2023-05-20T01:24:17.263Z,100630.03
2023-05-20T01:27:20.542Z,100629.88
2023-05-20T01:30:22.580Z,100625.25
2023-05-20T01:33:25.625Z,100627.66
2023-05-20T01:36:28.398Z,100630.88
2023-05-20T01:39:30.884Z,100635.41
2023-05-20T01:42:33.843Z,100632.94
2023-05-20T01:45:35.731Z,100629.16
2023-05-20T01:48:38.281Z,100633.94
2023-05-20T01:51:39.780Z,100629.34
2023-05-20T01:54:41.236Z,100629.47
2023-05-20T01:57:42.674Z,100626.91
2023-05-20T02:00:44.643Z,100634.91
2023-05-20T02:03:46.091Z,100624.78
2023-05-20T02:06:47.530Z,100625.03
2023-05-20T02:09:49.740Z,100624.88
2023-05-20T02:12:51.262Z,100619.00
2023-05-20T02:15:52.799Z,100617.84
2023-05-20T02:18:54.313Z,100608.81
2023-05-20T02:21:55.912Z,100611.97
2023-05-20T02:24:57.339Z,100614.00
2023-05-20T02:27:58.825Z,100616.13
2023-05-20T02:31:02.376Z,100607.22
2023-05-20T02:34:06.116Z,100610.50
2023-05-20T02:37:07.689Z,100614.09
2023-05-20T02:40:09.533Z,100602.34
2023-05-20T02:43:12.707Z,100605.81
2023-05-20T02:46:15.731Z,100594.94
2023-05-20T02:49:17.180Z,100592.38
2023-05-20T02:52:18.824Z,100590.34
2023-05-20T02:55:20.289Z,100582.13
2023-05-20T02:58:26.218Z,100591.09
2023-05-20T03:01:29.065Z,100587.50
2023-05-20T03:04:31.585Z,100583.13
2023-05-20T03:07:36.453Z,100591.94
2023-05-20T03:10:40.714Z,100588.97
2023-05-20T03:13:42.148Z,100593.28
2023-05-20T03:16:43.650Z,100587.09
2023-05-20T03:19:45.081Z,100588.13
2023-05-20T03:22:46.556Z,100593.28
2023-05-20T03:25:48.702Z,100599.06
2023-05-20T03:28:50.143Z,100594.63
2023-05-20T03:31:51.989Z,100604.38
2023-05-20T03:34:54.504Z,100600.72
2023-05-20T03:37:56.241Z,100606.72
2023-05-20T03:40:59.368Z,100610.25
2023-05-20T03:44:01.004Z,100609.88
2023-05-20T03:47:02.756Z,100609.88
2023-05-20T03:50:06.439Z,100614.25
2023-05-20T03:53:08.004Z,100612.38
2023-05-20T03:56:13.782Z,100610.81
2023-05-20T03:59:16.275Z,100611.06
2023-05-20T04:02:17.924Z,100613.66
2023-05-20T04:05:19.688Z,100613.66
2023-05-20T04:08:22.152Z,100607.78
2023-05-20T04:11:24.025Z,100606.19
2023-05-20T04:14:25.603Z,100608.78
2023-05-20T04:17:31.279Z,100607.38
2023-05-20T04:20:33.156Z,100611.81
2023-05-20T04:23:35.447Z,100615.03
2023-05-20T04:26:37.563Z,100620.19
2023-05-20T04:29:41.426Z,100613.97
2023-05-20T04:32:42.961Z,100616.31
2023-05-20T04:35:44.832Z,100615.44
2023-05-20T04:38:47.328Z,100614.56
2023-05-20T04:41:49.222Z,100610.25
2023-05-20T04:44:51.582Z,100615.19
2023-05-20T04:47:53.452Z,100601.06
2023-05-20T04:50:55.071Z,100612.94
2023-05-20T04:53:56.630Z,100606.34
2023-05-20T04:56:58.696Z,100604.13
2023-05-20T05:00:00.981Z,100603.53
2023-05-20T05:03:04.033Z,100608.44
2023-05-20T05:06:05.517Z,100610.56
2023-05-20T05:09:07.915Z,100605.63
2023-05-20T05:12:12.507Z,100601.41
2023-05-20T05:15:14.155Z,100596.97
2023-05-20T05:18:18.489Z,100594.38
2023-05-20T05:21:20.108Z,100590.63
2023-05-20T05:24:22.920Z,100588.94
2023-05-20T05:27:24.870Z,100586.06
2023-05-20T05:30:26.983Z,100577.69
2023-05-20T05:33:28.719Z,100583.50
2023-05-20T05:36:33.834Z,100583.06
2023-05-20T05:39:40.714Z,100570.09
2023-05-20T05:42:42.185Z,100570.44
2023-05-20T05:45:43.722Z,100567.72
2023-05-20T05:48:48.858Z,100571.09
2023-05-20T05:51:51.401Z,100569.75
2023-05-20T05:54:54.218Z,100562.34
2023-05-20T05:57:56.684Z,100564.34
2023-05-20T06:00:58.468Z,100570.56
2023-05-20T06:04:00.150Z,100569.16
2023-05-20T06:07:02.146Z,100571.19
2023-05-20T06:10:03.880Z,100566.69
2023-05-20T06:13:05.659Z,100563.72
2023-05-20T06:16:07.904Z,100567.59
2023-05-20T06:19:09.548Z,100566.41
2023-05-20T06:22:11.306Z,100564.16
2023-05-20T06:25:14.160Z,100558.69
2023-05-20T06:28:16.509Z,100560.22
2023-05-20T06:31:18.111Z,100559.72
2023-05-20T06:34:19.633Z,100561.88
2023-05-20T06:37:24.240Z,100560.09
2023-05-20T06:40:27.195Z,100561.63
2023-05-20T06:43:29.381Z,100559.81
2023-05-20T06:46:44.648Z,100558.22
2023-05-20T06:49:49.622Z,100552.56
2023-05-20T06:52:51.165Z,100550.19
2023-05-20T06:55:56.040Z,100549.09
2023-05-20T06:58:57.645Z,100542.22
2023-05-20T07:01:59.623Z,100549.41
2023-05-20T07:05:01.334Z,100553.84
2023-05-20T07:08:02.823Z,100543.13
2023-05-20T07:11:04.421Z,100537.59
2023-05-20T07:14:06.007Z,100540.78
2023-05-20T07:17:07.718Z,100532.38
2023-05-20T07:20:09.618Z,100527.31
2023-05-20T07:23:11.705Z,100532.81
2023-05-20T07:26:17.093Z,100523.84
2023-05-20T07:29:18.646Z,100516.28
2023-05-20T07:32:20.205Z,100518.25
2023-05-20T07:35:21.874Z,100515.31
2023-05-20T07:38:23.450Z,100508.56
2023-05-20T07:41:31.923Z,100507.72
2023-05-20T07:44:33.795Z,100503.72
2023-05-20T07:47:35.676Z,100498.47
2023-05-20T07:50:37.227Z,100494.94
2023-05-20T07:53:39.513Z,100500.28
2023-05-20T07:56:41.207Z,100480.56
2023-05-20T07:59:44.890Z,100491.78
2023-05-20T08:02:46.754Z,100491.91
2023-05-20T08:05:53.291Z,100479.16
2023-05-20T08:08:55.069Z,100487.00
2023-05-20T08:12:03.202Z,100493.66
2023-05-20T08:15:05.537Z,100486.41
2023-05-20T08:18:07.089Z,100484.72
2023-05-20T08:21:09.889Z,100480.09
2023-05-20T08:24:11.607Z,100489.19
2023-05-20T08:27:13.969Z,100478.38
2023-05-20T08:30:15.511Z,100481.72
2023-05-20T08:33:19.237Z,100478.16
2023-05-20T08:36:20.666Z,100492.06
2023-05-20T08:39:22.142Z,100482.25
2023-05-20T08:42:24.441Z,100476.31
2023-05-20T08:45:32.696Z,100461.75
2023-05-20T08:48:39.748Z,100463.09
2023-05-20T08:51:42.901Z,100457.88
2023-05-20T08:54:46.454Z,100447.78
2023-05-20T08:57:49.486Z,100454.75
2023-05-20T09:00:52.918Z,100461.59
2023-05-20T09:03:54.336Z,100453.44
2023-05-20T09:06:55.827Z,100446.81
2023-05-20T09:09:58.310Z,100452.81
2023-05-20T09:13:02.632Z,100449.03
2023-05-20T09:16:04.377Z,100445.56
2023-05-20T09:19:07.463Z,100435.16
2023-05-20T09:22:08.976Z,100437.28
2023-05-20T09:25:12.305Z,100419.84
2023-05-20T09:28:13.771Z,100431.47
2023-05-20T09:31:16.360Z,100447.00
2023-05-20T09:34:18.118Z,100438.25
2023-05-20T09:37:21.718Z,100420.09
2023-05-20T09:40:28.321Z,100430.50
2023-05-20T09:43:30.022Z,100428.41
2023-05-20T09:46:31.656Z,100432.56
2023-05-20T09:49:35.108Z,100432.91
2023-05-20T09:52:39.818Z,100435.88
2023-05-20T09:55:42.417Z,100437.03
2023-05-20T09:58:44.957Z,100441.69
2023-05-20T10:01:46.707Z,100428.28
2023-05-20T10:04:52.106Z,100427.25
2023-05-20T10:08:18.344Z,100424.59
2023-05-20T10:11:30.931Z,100410.22
2023-05-20T10:14:59.449Z,100415.22
2023-05-20T10:18:30.579Z,100409.97
2023-05-20T10:21:32.813Z,100396.47
2023-05-20T10:24:42.892Z,100396.38
2023-05-20T10:27:46.942Z,100387.56
2023-05-20T10:30:51.533Z,100390.38
2023-05-20T10:33:54.302Z,100394.75
2023-05-20T10:36:55.749Z,100382.03
2023-05-20T10:40:11.465Z,100380.53
2023-05-20T10:43:15.953Z,100383.00
2023-05-20T10:46:32.655Z,100378.50
2023-05-20T10:49:44.128Z,100377.97
2023-05-20T10:52:45.641Z,100374.94
2023-05-20T10:55:51.701Z,100366.88
2023-05-20T10:58:54.617Z,100376.66
2023-05-20T11:01:56.277Z,100372.97
2023-05-20T11:04:58.413Z,100374.94
2023-05-20T11:08:08.069Z,100372.38
2023-05-20T11:11:13.415Z,100375.44
2023-05-20T11:14:16.346Z,100366.97
2023-05-20T11:17:19.015Z,100366.94
2023-05-20T11:20:20.812Z,100370.50
2023-05-20T11:23:23.400Z,100367.59
2023-05-20T11:26:24.869Z,100364.81
2023-05-20T11:29:27.095Z,100366.91
2023-05-20T11:32:28.692Z,100359.13
2023-05-20T11:35:33.315Z,100354.56
2023-05-20T11:38:34.725Z,100344.31
2023-05-20T11:41:36.171Z,100344.38
2023-05-20T11:44:42.951Z,100340.41
2023-05-20T11:47:44.476Z,100333.94
2023-05-20T11:50:47.433Z,100335.78
2023-05-20T11:53:48.841Z,100328.03
2023-05-20T11:56:50.678Z,100326.34
2023-05-20T11:59:52.145Z,100321.28
2023-05-20T12:02:54.017Z,100316.50
2023-05-20T12:05:55.577Z,100323.81
2023-05-20T12:08:57.279Z,100320.50
2023-05-20T12:11:59.316Z,100329.16
2023-05-20T12:15:00.834Z,100331.94
2023-05-20T12:18:02.561Z,100331.66
2023-05-20T12:21:04.349Z,100313.31
2023-05-20T12:24:06.927Z,100309.19
2023-05-20T12:27:08.496Z,100305.53
2023-05-20T12:30:10.647Z,100319.16
2023-05-20T12:33:12.562Z,100306.16
2023-05-20T12:36:14.669Z,100305.53
2023-05-20T12:39:18.344Z,100300.94
2023-05-20T12:42:19.869Z,100309.00
2023-05-20T12:45:21.370Z,100301.66
2023-05-20T12:48:22.810Z,100304.06
2023-05-20T12:51:24.242Z,100295.69
2023-05-20T12:54:28.130Z,100293.19
2023-05-20T12:57:29.791Z,100295.53
2023-05-20T13:00:31.315Z,100303.19
2023-05-20T13:03:33.045Z,100302.69
2023-05-20T13:06:34.888Z,100293.03
2023-05-20T13:09:36.329Z,100286.34
2023-05-20T13:12:38.204Z,100290.44
2023-05-20T13:15:39.904Z,100286.97
2023-05-20T13:18:41.491Z,100290.09
2023-05-20T13:21:42.919Z,100292.53
2023-05-20T13:24:44.356Z,100281.44
2023-05-20T13:27:45.927Z,100288.53
2023-05-20T13:30:47.449Z,100279.25
2023-05-20T13:33:48.905Z,100277.72
2023-05-20T13:36:50.945Z,100279.13
2023-05-20T13:39:53.363Z,100270.50
2023-05-20T13:42:55.169Z,100272.56
2023-05-20T13:45:56.667Z,100271.00
2023-05-20T13:48:58.179Z,100267.13
2023-05-20T13:51:59.676Z,100251.97
2023-05-20T13:55:01.228Z,100255.50
2023-05-20T13:58:02.743Z,100252.22
2023-05-20T14:01:06.122Z,100252.94
2023-05-20T14:04:07.552Z,100250.69
2023-05-20T14:07:09.982Z,100236.81
2023-05-20T14:10:11.695Z,100240.66
2023-05-20T14:13:13.539Z,100233.00
2023-05-20T14:16:15.108Z,100229.03
2023-05-20T14:19:16.718Z,100225.06
2023-05-20T14:22:19.814Z,100224.06
2023-05-20T14:25:21.509Z,100221.25
2023-05-20T14:28:23.437Z,100221.25
2023-05-20T14:31:26.201Z,100214.47
2023-05-20T14:34:27.716Z,100203.09
2023-05-20T14:37:29.581Z,100202.81
2023-05-20T14:40:31.107Z,100199.28
2023-05-20T14:43:32.693Z,100195.59
2023-05-20T14:46:34.386Z,100197.06
2023-05-20T14:49:39.012Z,100194.91
2023-05-20T14:52:40.514Z,100207.66
2023-05-20T14:55:42.074Z,100205.94
2023-05-20T14:58:43.617Z,100200.47
2023-05-20T15:01:45.087Z,100193.22
2023-05-20T15:04:47.802Z,100195.63
2023-05-20T15:07:50.021Z,100194.59
2023-05-20T15:10:51.480Z,100191.47
2023-05-20T15:13:52.940Z,100198.28
2023-05-20T15:16:54.402Z,100205.94
2023-05-20T15:19:55.899Z,100199.28
2023-05-20T15:22:59.161Z,100196.31
2023-05-20T15:26:02.141Z,100200.13
2023-05-20T15:29:03.881Z,100198.84
2023-05-20T15:32:06.249Z,100204.25
2023-05-20T15:35:08.769Z,100196.91
2023-05-20T15:38:10.481Z,100195.44
2023-05-20T15:41:16.161Z,100194.75
2023-05-20T15:44:18.081Z,100202.81
2023-05-20T15:47:19.810Z,100202.66
2023-05-20T15:50:22.959Z,100204.00
2023-05-20T15:53:24.681Z,100210.22
2023-05-20T15:56:26.324Z,100199.72
2023-05-20T15:59:27.872Z,100200.88
2023-05-20T16:02:31.265Z,100199.97
2023-05-20T16:05:33.775Z,100200.56
2023-05-20T16:08:37.251Z,100201.56
2023-05-20T16:11:38.837Z,100204.22
2023-05-20T16:14:40.459Z,100204.09
2023-05-20T16:17:41.916Z,100196.00
2023-05-20T16:20:43.398Z,100195.44
2023-05-20T16:23:45.311Z,100192.47
2023-05-20T16:26:46.828Z,100194.00
2023-05-20T16:29:49.917Z,100181.28
2023-05-20T16:32:51.360Z,100189.91
2023-05-20T16:35:52.875Z,100194.59
2023-05-20T16:38:54.349Z,100186.06
2023-05-20T16:41:55.844Z,100198.09
2023-05-20T16:44:57.704Z,100196.47
2023-05-20T16:47:59.159Z,100202.50
2023-05-20T16:51:00.701Z,100207.88
2023-05-20T16:54:02.137Z,100212.06
2023-05-20T16:57:04.680Z,100205.47
2023-05-20T17:00:08.243Z,100201.09
2023-05-20T17:03:10.895Z,100200.25
2023-05-20T17:06:12.527Z,100206.47
2023-05-20T17:09:14.466Z,100201.28
2023-05-20T17:12:15.890Z,100196.34
2023-05-20T17:15:17.604Z,100201.81
2023-05-20T17:18:19.124Z,100197.97
2023-05-20T17:21:20.698Z,100197.28
2023-05-20T17:24:22.185Z,100194.59
2023-05-20T17:27:24.536Z,100189.75
2023-05-20T17:30:27.154Z,100190.66
2023-05-20T17:33:29.619Z,100195.97
2023-05-20T17:36:32.263Z,100190.25
2023-05-20T17:39:33.758Z,100187.97
2023-05-20T17:42:35.548Z,100195.97
2023-05-20T17:45:36.989Z,100199.69
2023-05-20T17:48:40.529Z,100196.63
2023-05-20T17:51:43.226Z,100198.09
2023-05-20T17:54:44.668Z,100216.19
2023-05-20T17:57:46.572Z,100211.81
2023-05-20T18:00:48.046Z,100212.22
2023-05-20T18:03:49.630Z,100220.28
2023-05-20T18:06:51.197Z,100227.25
2023-05-20T18:09:53.205Z,100223.47
2023-05-20T18:12:56.528Z,100225.78
2023-05-20T18:15:57.986Z,100230.03
2023-05-20T18:18:59.686Z,100229.28
2023-05-20T18:22:02.510Z,100231.50
2023-05-20T18:25:04.780Z,100234.44
2023-05-20T18:28:08.667Z,100233.09
2023-05-20T18:31:10.558Z,100229.06
2023-05-20T18:34:12.001Z,100234.03
2023-05-20T18:37:13.449Z,100238.06
2023-05-20T18:40:15.082Z,100235.59
2023-05-20T18:43:16.509Z,100237.78
2023-05-20T18:46:18.592Z,100226.94
2023-05-20T18:49:20.150Z,100228.97
2023-05-20T18:52:22.151Z,100222.41
2023-05-20T18:55:24.520Z,100220.19
2023-05-20T18:58:26.068Z,100226.00
2023-05-20T19:01:27.602Z,100221.09
2023-05-20T19:04:29.132Z,100226.66
2023-05-20T19:07:30.613Z,100225.44
2023-05-20T19:10:32.996Z,100224.41
2023-05-20T19:13:34.644Z,100228.41
2023-05-20T19:16:36.256Z,100232.19
2023-05-20T19:19:37.705Z,100229.22
2023-05-20T19:22:39.280Z,100240.16
2023-05-20T19:25:40.846Z,100238.78
2023-05-20T19:28:42.246Z,100240.19
2023-05-20T19:31:43.804Z,100235.19
2023-05-20T19:34:45.566Z,100238.81
2023-05-20T19:37:47.025Z,100239.38
2023-05-20T19:40:48.586Z,100246.78
2023-05-20T19:43:50.128Z,100252.53
2023-05-20T19:46:52.819Z,100251.41
2023-05-20T19:49:54.829Z,100251.72
2023-05-20T19:52:56.390Z,100254.81
2023-05-20T19:55:57.914Z,100247.25
2023-05-20T19:59:01.608Z,100251.84
2023-05-20T20:02:04.031Z,100253.03
2023-05-20T20:05:07.234Z,100252.50
2023-05-20T20:08:09.717Z,100254.63
2023-05-20T20:11:12.822Z,100247.72
2023-05-20T20:14:14.258Z,100248.25
2023-05-20T20:17:17.258Z,100256.69
2023-05-20T20:20:19.257Z,100259.59
2023-05-20T20:23:21.342Z,100248.25
2023-05-20T20:26:25.655Z,100251.03
2023-05-20T20:29:27.092Z,100256.38
2023-05-20T20:32:28.629Z,100258.28
2023-05-20T20:35:30.728Z,100260.88
2023-05-20T20:38:32.370Z,100252.31
2023-05-20T20:41:33.945Z,100261.72
2023-05-20T20:44:35.445Z,100263.84
2023-05-20T20:47:40.866Z,100263.41
2023-05-20T20:50:43.692Z,100269.13
2023-05-20T20:53:49.581Z,100265.69
2023-05-20T20:56:51.847Z,100262.38
2023-05-20T20:59:57.635Z,100257.38
2023-05-20T21:02:59.188Z,100254.03
2023-05-20T21:06:01.850Z,100250.72
2023-05-20T21:09:03.921Z,100250.63
2023-05-20T21:12:06.514Z,100246.25
2023-05-20T21:15:09.865Z,100248.56
2023-05-20T21:18:11.409Z,100246.66
2023-05-20T21:21:14.754Z,100245.38
2023-05-20T21:24:16.161Z,100240.34
2023-05-20T21:27:17.576Z,100242.78
2023-05-20T21:30:19.991Z,100232.13
2023-05-20T21:33:21.405Z,100227.09
2023-05-20T21:36:23.011Z,100232.00
2023-05-20T21:39:24.489Z,100223.44
2023-05-20T21:42:25.976Z,100229.94
2023-05-20T21:45:27.403Z,100226.97
2023-05-20T21:48:28.876Z,100226.09
2023-05-20T21:51:31.357Z,100227.50
2023-05-20T21:54:32.936Z,100221.31
2023-05-20T21:57:34.484Z,100214.44
2023-05-20T22:00:36.345Z,100215.31
2023-05-20T22:03:39.627Z,100213.41
2023-05-20T22:06:41.585Z,100214.25
2023-05-20T22:09:43.011Z,100211.78
2023-05-20T22:12:44.784Z,100209.03
2023-05-20T22:15:46.395Z,100208.38
2023-05-20T22:18:49.567Z,100201.53
2023-05-20T22:21:51.350Z,100206.97
2023-05-20T22:24:52.812Z,100201.69
2023-05-20T22:27:54.380Z,100204.66
2023-05-20T22:30:56.097Z,100190.84
2023-05-20T22:33:57.622Z,100189.31
2023-05-20T22:36:59.045Z,100183.69
2023-05-20T22:40:00.648Z,100189.84
2023-05-20T22:43:02.059Z,100188.44
2023-05-20T22:46:03.585Z,100181.63
2023-05-20T22:49:05.575Z,100179.91
2023-05-20T22:52:07.684Z,100177.50
2023-05-20T22:55:09.353Z,100176.13
2023-05-20T22:58:12.182Z,100176.69
2023-05-20T23:01:16.522Z,100174.03
2023-05-20T23:04:18.146Z,100166.22
2023-05-20T23:07:19.617Z,100159.91
2023-05-20T23:10:21.321Z,100166.09
2023-05-20T23:13:22.826Z,100164.81
2023-05-20T23:16:26.269Z,100157.78
2023-05-20T23:19:27.958Z,100157.88
2023-05-20T23:22:30.208Z,100156.72
2023-05-20T23:25:31.774Z,100163.38
2023-05-20T23:28:33.258Z,100148.19
2023-05-20T23:31:34.859Z,100146.25
2023-05-20T23:34:36.295Z,100152.25
2023-05-20T23:37:38.800Z,100139.44
2023-05-20T23:40:40.241Z,100134.88
2023-05-20T23:43:42.749Z,100138.72
2023-05-20T23:46:44.845Z,100135.09
2023-05-20T23:49:49.226Z,100146.69
2023-05-20T23:52:50.966Z,100139.88
2023-05-20T23:55:52.375Z,100135.69
2023-05-20T23:58:53.792Z,100138.66
